sensor_id;sensor_type;location;lat;lon;timestamp;pressure;altitude;pressure_sealevel;temperature;humidity
56582;BME280;42463;52.214;21.238;2023-08-21T00:00:07;100682.41;;;24.57;63.59
56582;BME280;42463;52.214;21.238;2023-08-21T00:02:36;100681.36;;;24.55;63.36
56582;BME280;42463;52.214;21.238;2023-08-21T00:04:42;100683.60;;;24.53;63.55
56582;BME280;42463;52.214;21.238;2023-08-21T00:06:47;100678.95;;;24.51;63.83
56582;BME280;42463;52.214;21.238;2023-08-21T00:08:53;100679.36;;;24.49;63.77
56582;BME280;42463;52.214;21.238;2023-08-21T00:11:00;100679.54;;;24.48;63.86
56582;BME280;42463;52.214;21.238;2023-08-21T00:13:06;100676.92;;;24.45;63.85
56582;BME280;42463;52.214;21.238;2023-08-21T00:15:12;100674.16;;;24.44;64.11
56582;BME280;42463;52.214;21.238;2023-08-21T00:17:17;100673.30;;;24.42;63.97
56582;BME280;42463;52.214;21.238;2023-08-21T00:19:23;100676.16;;;24.40;63.98
56582;BME280;42463;52.214;21.238;2023-08-21T00:21:29;100671.97;;;24.38;64.07
56582;BME280;42463;52.214;21.238;2023-08-21T00:23:35;100673.23;;;24.37;63.92
56582;BME280;42463;52.214;21.238;2023-08-21T00:25:41;100669.70;;;24.37;63.72
56582;BME280;42463;52.214;21.238;2023-08-21T00:27:47;100669.84;;;24.36;63.84
56582;BME280;42463;52.214;21.238;2023-08-21T00:29:53;100671.45;;;24.34;63.67
56582;BME280;42463;52.214;21.238;2023-08-21T00:31:59;100675.43;;;24.31;63.68
56582;BME280;42463;52.214;21.238;2023-08-21T00:34:05;100681.73;;;24.30;63.83
56582;BME280;42463;52.214;21.238;2023-08-21T00:36:10;100682.54;;;24.28;63.90
56582;BME280;42463;52.214;21.238;2023-08-21T00:38:16;100682.54;;;24.24;64.00
56582;BME280;42463;52.214;21.238;2023-08-21T00:40:22;100681.55;;;24.21;63.78
56582;BME280;42463;52.214;21.238;2023-08-21T00:42:28;100683.95;;;24.19;64.00
56582;BME280;42463;52.214;21.238;2023-08-21T00:44:34;100685.02;;;24.17;64.02
56582;BME280;42463;52.214;21.238;2023-08-21T00:46:40;100685.04;;;24.15;63.98
56582;BME280;42463;52.214;21.238;2023-08-21T00:48:46;100686.76;;;24.12;64.05
56582;BME280;42463;52.214;21.238;2023-08-21T00:50:53;100690.88;;;24.10;64.14
56582;BME280;42463;52.214;21.238;2023-08-21T00:53:00;100691.93;;;24.09;64.18
56582;BME280;42463;52.214;21.238;2023-08-21T00:55:09;100694.90;;;24.05;64.33
56582;BME280;42463;52.214;21.238;2023-08-21T00:57:15;100696.38;;;24.03;64.36
56582;BME280;42463;52.214;21.238;2023-08-21T00:59:21;100697.12;;;24.01;64.26
56582;BME280;42463;52.214;21.238;2023-08-21T01:03:52;100701.17;;;23.98;64.20
56582;BME280;42463;52.214;21.238;2023-08-21T01:05:58;100700.44;;;23.97;64.41
56582;BME280;42463;52.214;21.238;2023-08-21T01:08:05;100703.02;;;23.96;64.51
56582;BME280;42463;52.214;21.238;2023-08-21T01:10:18;100704.75;;;23.96;64.48
56582;BME280;42463;52.214;21.238;2023-08-21T01:12:33;100704.56;;;23.95;64.41
56582;BME280;42463;52.214;21.238;2023-08-21T01:14:46;100698.82;;;23.93;64.39
56582;BME280;42463;52.214;21.238;2023-08-21T01:16:55;100700.09;;;23.91;64.51
56582;BME280;42463;52.214;21.238;2023-08-21T01:19:02;100696.86;;;23.89;64.65
56582;BME280;42463;52.214;21.238;2023-08-21T01:21:09;100699.34;;;23.87;64.53
56582;BME280;42463;52.214;21.238;2023-08-21T01:23:31;100700.29;;;23.86;64.68
56582;BME280;42463;52.214;21.238;2023-08-21T01:25:37;100700.05;;;23.83;64.76
56582;BME280;42463;52.214;21.238;2023-08-21T01:27:45;100695.41;;;23.80;64.73
56582;BME280;42463;52.214;21.238;2023-08-21T01:29:52;100702.46;;;23.78;64.71
56582;BME280;42463;52.214;21.238;2023-08-21T01:32:05;100701.59;;;23.77;64.94
56582;BME280;42463;52.214;21.238;2023-08-21T01:34:12;100700.73;;;23.75;65.13
56582;BME280;42463;52.214;21.238;2023-08-21T01:36:20;100699.30;;;23.73;65.14
56582;BME280;42463;52.214;21.238;2023-08-21T01:38:26;100700.84;;;23.72;65.20
56582;BME280;42463;52.214;21.238;2023-08-21T01:40:32;100702.70;;;23.71;65.21
56582;BME280;42463;52.214;21.238;2023-08-21T01:42:38;100699.88;;;23.69;65.23
56582;BME280;42463;52.214;21.238;2023-08-21T01:44:44;100699.63;;;23.69;65.17
56582;BME280;42463;52.214;21.238;2023-08-21T01:46:50;100702.06;;;23.66;65.34
56582;BME280;42463;52.214;21.238;2023-08-21T01:48:56;100703.13;;;23.66;65.26
56582;BME280;42463;52.214;21.238;2023-08-21T01:51:03;100701.32;;;23.64;65.52
56582;BME280;42463;52.214;21.238;2023-08-21T01:53:09;100703.41;;;23.63;65.54
56582;BME280;42463;52.214;21.238;2023-08-21T01:55:15;100707.85;;;23.61;65.66
56582;BME280;42463;52.214;21.238;2023-08-21T01:57:20;100707.38;;;23.59;65.90
56582;BME280;42463;52.214;21.238;2023-08-21T01:59:27;100707.13;;;23.56;65.90
56582;BME280;42463;52.214;21.238;2023-08-21T02:01:32;100705.66;;;23.55;66.11
56582;BME280;42463;52.214;21.238;2023-08-21T02:03:39;100708.89;;;23.55;65.97
56582;BME280;42463;52.214;21.238;2023-08-21T02:05:44;100704.52;;;23.53;66.17
56582;BME280;42463;52.214;21.238;2023-08-21T02:07:50;100705.27;;;23.52;66.18
56582;BME280;42463;52.214;21.238;2023-08-21T02:09:55;100703.64;;;23.51;66.15
56582;BME280;42463;52.214;21.238;2023-08-21T02:12:01;100704.30;;;23.50;66.08
56582;BME280;42463;52.214;21.238;2023-08-21T02:14:07;100701.31;;;23.48;66.19
56582;BME280;42463;52.214;21.238;2023-08-21T02:16:13;100701.16;;;23.47;66.04
56582;BME280;42463;52.214;21.238;2023-08-21T02:18:19;100696.05;;;23.45;66.21
56582;BME280;42463;52.214;21.238;2023-08-21T02:20:25;100696.61;;;23.44;66.05
56582;BME280;42463;52.214;21.238;2023-08-21T02:22:31;100694.64;;;23.42;65.98
56582;BME280;42463;52.214;21.238;2023-08-21T02:24:36;100687.25;;;23.41;66.03
56582;BME280;42463;52.214;21.238;2023-08-21T02:26:42;100685.20;;;23.39;65.83
56582;BME280;42463;52.214;21.238;2023-08-21T02:28:50;100686.73;;;23.38;65.88
56582;BME280;42463;52.214;21.238;2023-08-21T02:30:55;100688.59;;;23.39;66.01
56582;BME280;42463;52.214;21.238;2023-08-21T02:33:01;100686.83;;;23.40;66.19
56582;BME280;42463;52.214;21.238;2023-08-21T02:35:08;100681.86;;;23.41;65.82
56582;BME280;42463;52.214;21.238;2023-08-21T02:37:13;100687.08;;;23.41;65.97
56582;BME280;42463;52.214;21.238;2023-08-21T02:39:20;100685.01;;;23.40;66.00
56582;BME280;42463;52.214;21.238;2023-08-21T02:41:25;100679.08;;;23.39;66.09
56582;BME280;42463;52.214;21.238;2023-08-21T02:43:31;100680.27;;;23.37;66.03
56582;BME280;42463;52.214;21.238;2023-08-21T02:45:37;100679.59;;;23.36;65.98
56582;BME280;42463;52.214;21.238;2023-08-21T02:47:43;100684.64;;;23.35;66.16
56582;BME280;42463;52.214;21.238;2023-08-21T02:49:49;100686.70;;;23.34;66.13
56582;BME280;42463;52.214;21.238;2023-08-21T02:51:55;100681.59;;;23.31;66.35
56582;BME280;42463;52.214;21.238;2023-08-21T02:54:00;100685.29;;;23.28;66.11
56582;BME280;42463;52.214;21.238;2023-08-21T02:56:07;100690.69;;;23.24;66.20
56582;BME280;42463;52.214;21.238;2023-08-21T02:58:12;100695.90;;;23.22;66.44
56582;BME280;42463;52.214;21.238;2023-08-21T03:00:18;100691.88;;;23.19;66.58
56582;BME280;42463;52.214;21.238;2023-08-21T03:02:24;100695.80;;;23.16;66.64
56582;BME280;42463;52.214;21.238;2023-08-21T03:04:30;100697.55;;;23.12;66.79
56582;BME280;42463;52.214;21.238;2023-08-21T03:06:36;100695.23;;;23.10;66.79
56582;BME280;42463;52.214;21.238;2023-08-21T03:08:41;100695.83;;;23.09;66.93
56582;BME280;42463;52.214;21.238;2023-08-21T03:10:48;100693.36;;;23.07;67.10
56582;BME280;42463;52.214;21.238;2023-08-21T03:12:53;100693.83;;;23.05;67.11
56582;BME280;42463;52.214;21.238;2023-08-21T03:14:59;100696.41;;;23.03;67.17
56582;BME280;42463;52.214;21.238;2023-08-21T03:17:05;100695.70;;;23.01;67.27
56582;BME280;42463;52.214;21.238;2023-08-21T03:19:11;100690.72;;;22.99;67.30
56582;BME280;42463;52.214;21.238;2023-08-21T03:21:17;100688.06;;;22.98;67.36
56582;BME280;42463;52.214;21.238;2023-08-21T03:23:23;100685.75;;;22.97;67.51
56582;BME280;42463;52.214;21.238;2023-08-21T03:25:32;100680.48;;;22.96;67.44
56582;BME280;42463;52.214;21.238;2023-08-21T03:27:38;100678.02;;;22.93;67.29
56582;BME280;42463;52.214;21.238;2023-08-21T03:29:44;100675.55;;;22.91;67.40
56582;BME280;42463;52.214;21.238;2023-08-21T03:31:54;100680.83;;;22.91;67.40
56582;BME280;42463;52.214;21.238;2023-08-21T03:34:00;100679.36;;;22.90;67.70
56582;BME280;42463;52.214;21.238;2023-08-21T03:36:06;100676.14;;;22.90;67.58
56582;BME280;42463;52.214;21.238;2023-08-21T03:38:13;100680.60;;;22.91;67.52
56582;BME280;42463;52.214;21.238;2023-08-21T03:40:22;100680.88;;;22.92;67.39
56582;BME280;42463;52.214;21.238;2023-08-21T03:42:28;100678.54;;;22.93;67.13
56582;BME280;42463;52.214;21.238;2023-08-21T03:44:34;100683.15;;;22.94;67.03
56582;BME280;42463;52.214;21.238;2023-08-21T03:46:39;100685.80;;;22.93;67.25
56582;BME280;42463;52.214;21.238;2023-08-21T03:48:45;100685.35;;;22.91;67.28
56582;BME280;42463;52.214;21.238;2023-08-21T03:50:51;100684.60;;;22.90;67.21
56582;BME280;42463;52.214;21.238;2023-08-21T03:52:57;100691.02;;;22.89;67.33
56582;BME280;42463;52.214;21.238;2023-08-21T03:55:02;100686.49;;;22.87;67.33
56582;BME280;42463;52.214;21.238;2023-08-21T03:57:08;100685.91;;;22.87;67.43
56582;BME280;42463;52.214;21.238;2023-08-21T03:59:14;100692.55;;;22.87;67.40
56582;BME280;42463;52.214;21.238;2023-08-21T04:01:19;100693.11;;;22.87;67.32
56582;BME280;42463;52.214;21.238;2023-08-21T04:03:25;100695.94;;;22.86;67.19
56582;BME280;42463;52.214;21.238;2023-08-21T04:05:31;100695.65;;;22.87;67.37
56582;BME280;42463;52.214;21.238;2023-08-21T04:07:37;100694.77;;;22.87;67.36
56582;BME280;42463;52.214;21.238;2023-08-21T04:09:44;100694.31;;;22.87;67.32
56582;BME280;42463;52.214;21.238;2023-08-21T04:11:50;100698.67;;;22.87;67.30
56582;BME280;42463;52.214;21.238;2023-08-21T04:13:55;100691.90;;;22.88;67.36
56582;BME280;42463;52.214;21.238;2023-08-21T04:16:02;100688.52;;;22.88;67.31
56582;BME280;42463;52.214;21.238;2023-08-21T04:18:07;100691.71;;;22.89;67.20
56582;BME280;42463;52.214;21.238;2023-08-21T04:20:14;100694.52;;;22.90;67.25
56582;BME280;42463;52.214;21.238;2023-08-21T04:22:19;100697.48;;;22.90;67.36
56582;BME280;42463;52.214;21.238;2023-08-21T04:24:25;100697.33;;;22.92;67.39
56582;BME280;42463;52.214;21.238;2023-08-21T04:26:31;100698.09;;;22.94;67.45
56582;BME280;42463;52.214;21.238;2023-08-21T04:28:37;100694.55;;;22.96;67.46
56582;BME280;42463;52.214;21.238;2023-08-21T04:30:42;100691.54;;;22.98;67.40
56582;BME280;42463;52.214;21.238;2023-08-21T04:32:49;100686.88;;;23.00;67.39
56582;BME280;42463;52.214;21.238;2023-08-21T04:34:55;100685.73;;;23.02;67.40
56582;BME280;42463;52.214;21.238;2023-08-21T04:37:02;100690.95;;;23.06;67.42
56582;BME280;42463;52.214;21.238;2023-08-21T04:39:09;100686.70;;;23.11;67.45
56582;BME280;42463;52.214;21.238;2023-08-21T04:41:15;100684.88;;;23.14;67.57
56582;BME280;42463;52.214;21.238;2023-08-21T04:43:23;100695.83;;;23.18;67.35
56582;BME280;42463;52.214;21.238;2023-08-21T04:45:29;100705.94;;;23.20;67.34
56582;BME280;42463;52.214;21.238;2023-08-21T04:47:34;100707.23;;;23.23;67.45
56582;BME280;42463;52.214;21.238;2023-08-21T04:49:41;100709.73;;;23.24;67.20
56582;BME280;42463;52.214;21.238;2023-08-21T04:51:46;100707.54;;;23.27;67.67
56582;BME280;42463;52.214;21.238;2023-08-21T04:53:52;100709.30;;;23.29;67.58
56582;BME280;42463;52.214;21.238;2023-08-21T04:55:59;100707.36;;;23.32;67.68
56582;BME280;42463;52.214;21.238;2023-08-21T04:58:07;100709.23;;;23.35;67.83
56582;BME280;42463;52.214;21.238;2023-08-21T05:00:15;100708.40;;;23.38;67.82
56582;BME280;42463;52.214;21.238;2023-08-21T05:02:21;100703.44;;;23.40;68.08
56582;BME280;42463;52.214;21.238;2023-08-21T05:04:29;100701.05;;;23.44;68.12
56582;BME280;42463;52.214;21.238;2023-08-21T05:06:35;100700.39;;;23.49;68.25
56582;BME280;42463;52.214;21.238;2023-08-21T05:08:40;100699.23;;;23.54;68.32
56582;BME280;42463;52.214;21.238;2023-08-21T05:10:46;100701.85;;;23.57;68.23
56582;BME280;42463;52.214;21.238;2023-08-21T05:12:52;100700.30;;;23.60;68.30
56582;BME280;42463;52.214;21.238;2023-08-21T05:14:57;100699.23;;;23.63;68.23
56582;BME280;42463;52.214;21.238;2023-08-21T05:17:04;100699.77;;;23.67;68.31
56582;BME280;42463;52.214;21.238;2023-08-21T05:19:09;100705.48;;;23.69;68.42
56582;BME280;42463;52.214;21.238;2023-08-21T05:21:15;100710.04;;;23.72;68.23
56582;BME280;42463;52.214;21.238;2023-08-21T05:23:21;100713.11;;;23.74;68.24
56582;BME280;42463;52.214;21.238;2023-08-21T05:25:27;100715.80;;;23.76;68.37
56582;BME280;42463;52.214;21.238;2023-08-21T05:27:32;100714.63;;;23.78;68.35
56582;BME280;42463;52.214;21.238;2023-08-21T05:29:38;100715.91;;;23.80;68.45
56582;BME280;42463;52.214;21.238;2023-08-21T05:31:44;100713.02;;;23.83;68.49
56582;BME280;42463;52.214;21.238;2023-08-21T05:33:50;100713.68;;;23.86;68.47
56582;BME280;42463;52.214;21.238;2023-08-21T05:35:57;100711.35;;;23.89;68.60
56582;BME280;42463;52.214;21.238;2023-08-21T05:38:03;100710.55;;;23.93;68.70
56582;BME280;42463;52.214;21.238;2023-08-21T05:40:10;100709.28;;;23.97;68.73
56582;BME280;42463;52.214;21.238;2023-08-21T05:42:16;100710.36;;;24.02;68.56
56582;BME280;42463;52.214;21.238;2023-08-21T05:44:22;100707.84;;;24.06;68.68
56582;BME280;42463;52.214;21.238;2023-08-21T05:46:28;100717.52;;;24.11;68.56
56582;BME280;42463;52.214;21.238;2023-08-21T05:48:34;100722.80;;;24.16;68.62
56582;BME280;42463;52.214;21.238;2023-08-21T05:50:39;100723.80;;;24.20;68.56
56582;BME280;42463;52.214;21.238;2023-08-21T05:52:45;100724.39;;;24.25;68.38
56582;BME280;42463;52.214;21.238;2023-08-21T05:54:51;100722.81;;;24.29;68.57
56582;BME280;42463;52.214;21.238;2023-08-21T05:56:56;100727.63;;;24.35;68.47
56582;BME280;42463;52.214;21.238;2023-08-21T05:59:02;100731.89;;;24.39;68.29
56582;BME280;42463;52.214;21.238;2023-08-21T06:01:08;100730.52;;;24.44;68.21
56582;BME280;42463;52.214;21.238;2023-08-21T06:03:13;100732.58;;;24.50;68.27
56582;BME280;42463;52.214;21.238;2023-08-21T06:05:39;100734.27;;;24.55;67.92
56582;BME280;42463;52.214;21.238;2023-08-21T06:07:45;100736.64;;;24.60;67.80
56582;BME280;42463;52.214;21.238;2023-08-21T06:09:51;100735.61;;;24.64;67.75
56582;BME280;42463;52.214;21.238;2023-08-21T06:11:57;100737.16;;;24.70;67.62
56582;BME280;42463;52.214;21.238;2023-08-21T06:14:03;100738.70;;;24.75;67.66
56582;BME280;42463;52.214;21.238;2023-08-21T06:16:08;100743.88;;;24.80;67.71
56582;BME280;42463;52.214;21.238;2023-08-21T06:18:15;100743.30;;;24.84;67.61
56582;BME280;42463;52.214;21.238;2023-08-21T06:20:21;100741.24;;;24.89;67.73
56582;BME280;42463;52.214;21.238;2023-08-21T06:22:27;100739.98;;;24.93;67.60
56582;BME280;42463;52.214;21.238;2023-08-21T06:24:32;100747.55;;;24.98;67.47
56582;BME280;42463;52.214;21.238;2023-08-21T06:26:40;100749.63;;;25.00;67.14
56582;BME280;42463;52.214;21.238;2023-08-21T06:28:46;100754.02;;;25.05;66.99
56582;BME280;42463;52.214;21.238;2023-08-21T06:30:56;100754.66;;;25.12;66.98
56582;BME280;42463;52.214;21.238;2023-08-21T06:33:03;100754.42;;;25.19;66.69
56582;BME280;42463;52.214;21.238;2023-08-21T06:35:10;100750.23;;;25.25;66.62
56582;BME280;42463;52.214;21.238;2023-08-21T06:37:16;100746.01;;;25.31;66.49
56582;BME280;42463;52.214;21.238;2023-08-21T06:39:21;100750.59;;;25.35;66.28
56582;BME280;42463;52.214;21.238;2023-08-21T06:41:27;100750.22;;;25.38;65.93
56582;BME280;42463;52.214;21.238;2023-08-21T06:43:33;100752.10;;;25.42;65.77
56582;BME280;42463;52.214;21.238;2023-08-21T06:45:39;100758.73;;;25.46;65.63
56582;BME280;42463;52.214;21.238;2023-08-21T06:47:45;100763.93;;;25.47;65.62
56582;BME280;42463;52.214;21.238;2023-08-21T06:49:51;100764.61;;;25.49;65.75
56582;BME280;42463;52.214;21.238;2023-08-21T06:51:56;100769.16;;;25.52;65.58
56582;BME280;42463;52.214;21.238;2023-08-21T06:54:03;100772.16;;;25.56;65.62
56582;BME280;42463;52.214;21.238;2023-08-21T06:56:08;100769.82;;;25.60;65.42
56582;BME280;42463;52.214;21.238;2023-08-21T06:58:14;100777.32;;;25.63;65.21
56582;BME280;42463;52.214;21.238;2023-08-21T07:00:19;100778.67;;;25.67;65.09
56582;BME280;42463;52.214;21.238;2023-08-21T07:02:25;100778.54;;;25.73;65.20
56582;BME280;42463;52.214;21.238;2023-08-21T07:04:31;100773.20;;;25.77;65.16
56582;BME280;42463;52.214;21.238;2023-08-21T07:06:37;100778.51;;;25.80;65.10
56582;BME280;42463;52.214;21.238;2023-08-21T07:08:43;100781.04;;;25.81;64.72
56582;BME280;42463;52.214;21.238;2023-08-21T07:10:49;100786.73;;;25.86;64.56
56582;BME280;42463;52.214;21.238;2023-08-21T07:12:55;100796.44;;;25.89;64.59
56582;BME280;42463;52.214;21.238;2023-08-21T07:15:01;100799.23;;;25.92;64.58
56582;BME280;42463;52.214;21.238;2023-08-21T07:17:07;100798.58;;;25.94;64.52
56582;BME280;42463;52.214;21.238;2023-08-21T07:19:13;100803.66;;;25.96;64.31
56582;BME280;42463;52.214;21.238;2023-08-21T07:21:19;100803.81;;;25.98;64.58
56582;BME280;42463;52.214;21.238;2023-08-21T07:23:25;100810.86;;;26.00;64.64
56582;BME280;42463;52.214;21.238;2023-08-21T07:25:30;100815.41;;;26.00;64.50
56582;BME280;42463;52.214;21.238;2023-08-21T07:27:36;100816.33;;;26.01;64.57
56582;BME280;42463;52.214;21.238;2023-08-21T07:29:42;100819.92;;;26.02;64.11
56582;BME280;42463;52.214;21.238;2023-08-21T07:31:48;100823.63;;;26.01;63.92
56582;BME280;42463;52.214;21.238;2023-08-21T07:33:53;100828.63;;;26.01;63.60
56582;BME280;42463;52.214;21.238;2023-08-21T07:36:00;100832.15;;;25.98;63.76
56582;BME280;42463;52.214;21.238;2023-08-21T07:38:06;100834.10;;;25.94;63.84
56582;BME280;42463;52.214;21.238;2023-08-21T07:40:12;100838.41;;;25.90;63.91
56582;BME280;42463;52.214;21.238;2023-08-21T07:42:18;100839.69;;;25.85;64.13
56582;BME280;42463;52.214;21.238;2023-08-21T07:44:23;100836.90;;;25.83;64.11
56582;BME280;42463;52.214;21.238;2023-08-21T07:46:29;100840.79;;;25.80;64.23
56582;BME280;42463;52.214;21.238;2023-08-21T07:48:36;100841.46;;;25.76;64.24
56582;BME280;42463;52.214;21.238;2023-08-21T07:50:42;100833.83;;;25.74;64.34
56582;BME280;42463;52.214;21.238;2023-08-21T07:52:55;100829.14;;;25.73;64.41
56582;BME280;42463;52.214;21.238;2023-08-21T07:55:00;100827.65;;;25.72;64.64
56582;BME280;42463;52.214;21.238;2023-08-21T07:57:06;100829.73;;;25.70;64.32
56582;BME280;42463;52.214;21.238;2023-08-21T07:59:12;100835.05;;;25.70;64.30
56582;BME280;42463;52.214;21.238;2023-08-21T08:01:17;100838.55;;;25.68;64.63
56582;BME280;42463;52.214;21.238;2023-08-21T08:03:25;100837.13;;;25.68;64.90
56582;BME280;42463;52.214;21.238;2023-08-21T08:05:30;100837.99;;;25.66;64.88
56582;BME280;42463;52.214;21.238;2023-08-21T08:07:36;100831.95;;;25.63;64.88
56582;BME280;42463;52.214;21.238;2023-08-21T08:09:42;100833.24;;;25.62;65.08
56582;BME280;42463;52.214;21.238;2023-08-21T08:11:47;100829.44;;;25.60;65.26
56582;BME280;42463;52.214;21.238;2023-08-21T08:13:53;100832.77;;;25.60;65.05
56582;BME280;42463;52.214;21.238;2023-08-21T08:15:59;100833.73;;;25.60;65.19
56582;BME280;42463;52.214;21.238;2023-08-21T08:18:10;100831.64;;;25.59;65.45
56582;BME280;42463;52.214;21.238;2023-08-21T08:20:16;100832.55;;;25.62;65.76
56582;BME280;42463;52.214;21.238;2023-08-21T08:22:22;100829.45;;;25.66;65.51
56582;BME280;42463;52.214;21.238;2023-08-21T08:24:28;100824.30;;;25.69;65.72
56582;BME280;42463;52.214;21.238;2023-08-21T08:26:34;100820.30;;;25.70;65.77
56582;BME280;42463;52.214;21.238;2023-08-21T08:28:39;100823.67;;;25.71;65.65
56582;BME280;42463;52.214;21.238;2023-08-21T08:30:46;100823.21;;;25.74;65.45
56582;BME280;42463;52.214;21.238;2023-08-21T08:32:51;100825.34;;;25.76;65.43
56582;BME280;42463;52.214;21.238;2023-08-21T08:34:57;100824.00;;;25.79;65.42
56582;BME280;42463;52.214;21.238;2023-08-21T08:37:03;100825.25;;;25.83;65.56
56582;BME280;42463;52.214;21.238;2023-08-21T08:39:09;100825.83;;;25.89;65.31
56582;BME280;42463;52.214;21.238;2023-08-21T08:41:21;100819.73;;;25.94;65.13
56582;BME280;42463;52.214;21.238;2023-08-21T08:43:30;100814.77;;;26.00;65.35
56582;BME280;42463;52.214;21.238;2023-08-21T08:45:37;100801.04;;;26.05;64.92
56582;BME280;42463;52.214;21.238;2023-08-21T08:47:45;100803.83;;;26.13;65.05
56582;BME280;42463;52.214;21.238;2023-08-21T08:49:51;100798.52;;;26.21;64.68
56582;BME280;42463;52.214;21.238;2023-08-21T08:51:59;100795.39;;;26.26;64.05
56582;BME280;42463;52.214;21.238;2023-08-21T08:54:05;100793.55;;;26.30;64.28
56582;BME280;42463;52.214;21.238;2023-08-21T08:56:11;100794.25;;;26.34;63.94
56582;BME280;42463;52.214;21.238;2023-08-21T08:58:18;100788.37;;;26.37;63.72
56582;BME280;42463;52.214;21.238;2023-08-21T09:00:23;100791.55;;;26.39;63.38
56582;BME280;42463;52.214;21.238;2023-08-21T09:02:30;100794.23;;;26.42;63.11
56582;BME280;42463;52.214;21.238;2023-08-21T09:04:36;100791.41;;;26.46;63.11
56582;BME280;42463;52.214;21.238;2023-08-21T09:06:42;100790.49;;;26.49;63.13
56582;BME280;42463;52.214;21.238;2023-08-21T09:08:56;100792.76;;;26.53;62.88
56582;BME280;42463;52.214;21.238;2023-08-21T09:11:04;100792.88;;;26.57;62.73
56582;BME280;42463;52.214;21.238;2023-08-21T09:13:15;100788.36;;;26.63;62.76
56582;BME280;42463;52.214;21.238;2023-08-21T09:15:21;100783.70;;;26.70;62.74
56582;BME280;42463;52.214;21.238;2023-08-21T09:17:34;100778.53;;;26.79;62.30
56582;BME280;42463;52.214;21.238;2023-08-21T09:19:39;100772.52;;;26.85;62.07
56582;BME280;42463;52.214;21.238;2023-08-21T09:21:49;100766.30;;;26.91;61.62
56582;BME280;42463;52.214;21.238;2023-08-21T09:24:01;100767.77;;;26.98;61.08
56582;BME280;42463;52.214;21.238;2023-08-21T09:26:07;100759.13;;;27.03;60.69
56582;BME280;42463;52.214;21.238;2023-08-21T09:28:13;100762.30;;;27.12;60.15
56582;BME280;42463;52.214;21.238;2023-08-21T09:30:19;100764.00;;;27.19;59.77
56582;BME280;42463;52.214;21.238;2023-08-21T09:32:24;100762.74;;;27.25;59.39
56582;BME280;42463;52.214;21.238;2023-08-21T09:34:34;100765.61;;;27.31;59.82
56582;BME280;42463;52.214;21.238;2023-08-21T09:36:41;100764.78;;;27.40;59.56
56582;BME280;42463;52.214;21.238;2023-08-21T09:38:50;100762.66;;;27.47;58.95
56582;BME280;42463;52.214;21.238;2023-08-21T09:40:56;100764.07;;;27.53;58.34
56582;BME280;42463;52.214;21.238;2023-08-21T09:43:04;100764.66;;;27.60;57.48
56582;BME280;42463;52.214;21.238;2023-08-21T09:45:10;100764.85;;;27.67;56.90
56582;BME280;42463;52.214;21.238;2023-08-21T09:47:16;100765.03;;;27.75;56.79
56582;BME280;42463;52.214;21.238;2023-08-21T09:49:22;100761.88;;;27.83;56.52
56582;BME280;42463;52.214;21.238;2023-08-21T09:51:28;100760.78;;;27.90;56.06
56582;BME280;42463;52.214;21.238;2023-08-21T09:53:34;100763.73;;;27.97;55.34
56582;BME280;42463;52.214;21.238;2023-08-21T09:55:40;100758.12;;;28.03;54.67
56582;BME280;42463;52.214;21.238;2023-08-21T09:57:46;100758.93;;;28.10;54.76
56582;BME280;42463;52.214;21.238;2023-08-21T10:00:03;100760.92;;;28.16;54.77
56582;BME280;42463;52.214;21.238;2023-08-21T10:02:19;100754.69;;;28.22;54.31
56582;BME280;42463;52.214;21.238;2023-08-21T10:04:26;100751.18;;;28.25;54.40
56582;BME280;42463;52.214;21.238;2023-08-21T10:06:33;100754.83;;;28.32;54.32
56582;BME280;42463;52.214;21.238;2023-08-21T10:08:41;100749.85;;;28.42;53.88
56582;BME280;42463;52.214;21.238;2023-08-21T10:10:49;100753.91;;;28.49;53.13
56582;BME280;42463;52.214;21.238;2023-08-21T10:12:55;100750.77;;;28.56;52.55
56582;BME280;42463;52.214;21.238;2023-08-21T10:15:01;100747.73;;;28.63;52.27
56582;BME280;42463;52.214;21.238;2023-08-21T10:17:08;100752.87;;;28.69;51.39
56582;BME280;42463;52.214;21.238;2023-08-21T10:19:18;100751.00;;;28.75;50.38
56582;BME280;42463;52.214;21.238;2023-08-21T10:21:25;100749.52;;;28.80;49.85
56582;BME280;42463;52.214;21.238;2023-08-21T10:23:31;100744.21;;;28.86;49.76
56582;BME280;42463;52.214;21.238;2023-08-21T10:25:42;100744.33;;;28.91;49.81
56582;BME280;42463;52.214;21.238;2023-08-21T10:27:48;100743.82;;;28.98;49.57
56582;BME280;42463;52.214;21.238;2023-08-21T10:29:59;100749.81;;;29.04;48.79
56582;BME280;42463;52.214;21.238;2023-08-21T10:32:05;100744.95;;;29.09;49.23
56582;BME280;42463;52.214;21.238;2023-08-21T10:34:12;100750.03;;;29.14;49.02
56582;BME280;42463;52.214;21.238;2023-08-21T10:36:38;100749.88;;;29.19;48.49
56582;BME280;42463;52.214;21.238;2023-08-21T10:39:01;100746.99;;;29.23;46.17
56582;BME280;42463;52.214;21.238;2023-08-21T10:41:08;100746.73;;;29.27;44.44
56582;BME280;42463;52.214;21.238;2023-08-21T10:43:38;100746.68;;;29.33;43.86
56582;BME280;42463;52.214;21.238;2023-08-21T10:45:55;100745.67;;;29.39;42.93
56582;BME280;42463;52.214;21.238;2023-08-21T10:48:01;100747.73;;;29.43;41.45
56582;BME280;42463;52.214;21.238;2023-08-21T10:50:08;100743.34;;;29.46;41.16
56582;BME280;42463;52.214;21.238;2023-08-21T10:52:14;100741.25;;;29.50;41.32
56582;BME280;42463;52.214;21.238;2023-08-21T10:54:20;100744.84;;;29.55;41.20
56582;BME280;42463;52.214;21.238;2023-08-21T10:56:26;100747.02;;;29.56;40.21